Time;durP1;ratioP1;P1;durP2;ratioP2;P2;SDS_P1;SDS_P2;PMS_P1;PMS_P2;Temp;Humidity;BMP_temperature;BMP_pressure;BME280_temperature;BME280_humidity;BME280_pressure;Samples;Min_cycle;Max_cycle;Signal;HPM_P1;HPM_P2
2023/07/09 00:01:41;;;;;;;21.48;11.13;;;;;;;20.26;100.00;101514.03;5028630;28;20033;-72
2023/07/09 00:04:10;;;;;;;22.25;10.55;;;;;;;20.23;100.00;101520.66;5045484;28;20484;-72
2023/07/09 00:06:35;;;;;;;23.42;11.35;;;;;;;20.23;100.00;101509.75;5041554;28;20025;-72
2023/07/09 00:09:00;;;;;;;21.88;11.02;;;;;;;20.21;100.00;101516.41;5046902;28;20117;-73
2023/07/09 00:11:26;;;;;;;22.55;11.60;;;;;;;20.18;100.00;101516.72;5059370;28;20434;-72
2023/07/09 00:13:51;;;;;;;22.45;11.43;;;;;;;20.15;100.00;101515.16;5045192;28;20029;-73
2023/07/09 00:16:21;;;;;;;23.38;11.35;;;;;;;20.13;100.00;101519.91;5033382;28;20067;-72
2023/07/09 00:18:48;;;;;;;22.10;11.13;;;;;;;20.15;100.00;101515.16;5050051;28;20037;-72
2023/07/09 00:21:15;;;;;;;24.58;11.50;;;;;;;20.16;100.00;101524.19;5051885;28;20107;-74
2023/07/09 00:23:41;;;;;;;24.13;11.43;;;;;;;20.14;100.00;101524.34;5052333;28;20517;-72
2023/07/09 00:26:15;;;;;;;24.27;12.07;;;;;;;20.08;100.00;101523.13;5052885;28;20497;-75
2023/07/09 00:28:44;;;;;;;21.65;11.50;;;;;;;20.04;100.00;101532.63;5048261;28;20040;-72
2023/07/09 00:31:15;;;;;;;26.85;13.00;;;;;;;20.01;100.00;101534.84;5027544;28;20579;-73
2023/07/09 00:33:41;;;;;;;23.15;11.98;;;;;;;19.99;100.00;101536.88;5032571;28;20469;-72
2023/07/09 00:36:20;;;;;;;23.42;12.07;;;;;;;19.97;100.00;101530.69;5051828;28;20036;-75
2023/07/09 00:38:47;;;;;;;26.83;12.55;;;;;;;19.94;100.00;101537.31;5051680;28;20081;-72
2023/07/09 00:41:19;;;;;;;23.42;13.48;;;;;;;19.90;100.00;101535.94;5052965;28;20025;-73
2023/07/09 00:43:47;;;;;;;28.80;13.10;;;;;;;19.89;100.00;101537.78;5049183;28;20033;-72
2023/07/09 00:46:23;;;;;;;25.27;13.65;;;;;;;19.89;100.00;101543.25;5054982;28;20210;-72
2023/07/09 00:49:07;;;;;;;22.80;13.40;;;;;;;19.88;100.00;101538.84;5053799;28;20033;-72
2023/07/09 00:51:43;;;;;;;23.08;11.98;;;;;;;19.86;100.00;101545.44;5053397;28;20032;-73
2023/07/09 00:54:23;;;;;;;25.42;13.18;;;;;;;19.87;100.00;101539.84;5048904;28;20029;-73
2023/07/09 00:56:52;;;;;;;23.23;11.40;;;;;;;19.85;100.00;101541.84;5048609;28;20025;-74
2023/07/09 00:59:21;;;;;;;22.85;11.52;;;;;;;19.83;100.00;101545.78;5053208;28;20033;-72
2023/07/09 01:01:49;;;;;;;22.80;13.13;;;;;;;19.80;100.00;101541.47;5047582;28;20169;-73
2023/07/09 01:04:19;;;;;;;22.98;12.95;;;;;;;19.79;100.00;101538.91;5052434;28;20395;-73
2023/07/09 01:06:51;;;;;;;24.05;12.20;;;;;;;19.78;100.00;101538.06;5051757;28;20032;-72
2023/07/09 01:09:16;;;;;;;24.63;13.32;;;;;;;19.76;100.00;101534.59;5050780;28;20031;-74
2023/07/09 01:11:42;;;;;;;24.30;13.23;;;;;;;19.73;100.00;101540.34;5048080;28;20036;-72
2023/07/09 01:14:11;;;;;;;24.20;13.15;;;;;;;19.71;100.00;101531.47;5034031;28;20480;-72
2023/07/09 01:16:40;;;;;;;24.23;13.30;;;;;;;19.69;100.00;101528.03;5029878;28;20036;-74
2023/07/09 01:19:05;;;;;;;;;;;;;;;19.77;100.00;101530.00;5032326;28;20055;-74
2023/07/09 01:21:32;;;;;;;29.48;12.85;;;;;;;19.68;100.00;101529.06;5033190;28;19982;-73
2023/07/09 01:23:58;;;;;;;23.50;12.68;;;;;;;19.64;100.00;101528.50;5050970;28;20039;-72
2023/07/09 01:26:26;;;;;;;25.67;13.75;;;;;;;19.61;100.00;101530.69;5048589;28;20056;-72
2023/07/09 01:28:55;;;;;;;24.20;12.57;;;;;;;19.60;100.00;101539.88;5051675;28;20040;-75
2023/07/09 01:31:22;;;;;;;23.25;12.45;;;;;;;19.58;100.00;101533.72;5050187;28;20040;-73
2023/07/09 01:33:47;;;;;;;24.17;13.55;;;;;;;19.56;100.00;101533.88;5034362;28;20021;-72
2023/07/09 01:36:17;;;;;;;25.88;13.63;;;;;;;19.52;100.00;101532.50;5052898;28;20503;-73
2023/07/09 01:38:43;;;;;;;24.45;13.30;;;;;;;19.49;100.00;101541.81;5027942;28;20136;-72
2023/07/09 01:41:13;;;;;;;26.67;13.57;;;;;;;19.48;100.00;101541.97;5061360;28;20029;-72
2023/07/09 01:43:41;;;;;;;24.95;13.32;;;;;;;19.46;100.00;101533.97;5059646;28;20029;-72
2023/07/09 01:46:07;;;;;;;24.98;13.65;;;;;;;19.45;100.00;101540.41;5034887;28;20024;-72
2023/07/09 01:48:40;;;;;;;23.83;13.20;;;;;;;19.46;100.00;101546.72;5043622;28;20040;-72
2023/07/09 01:51:08;;;;;;;25.20;12.45;;;;;;;19.46;100.00;101535.81;5062373;28;20028;-72
2023/07/09 01:53:36;;;;;;;22.55;12.77;;;;;;;19.47;100.00;101546.56;5051251;28;20021;-72
2023/07/09 01:56:02;;;;;;;24.77;12.55;;;;;;;19.47;100.00;101545.72;5060780;28;20378;-72
2023/07/09 01:58:31;;;;;;;23.88;13.13;;;;;;;19.47;100.00;101549.28;5060264;28;20024;-72
2023/07/09 02:00:57;;;;;;;26.73;14.45;;;;;;;19.51;100.00;101558.88;5040327;28;20016;-72
2023/07/09 02:03:24;;;;;;;24.70;13.98;;;;;;;19.51;100.00;101553.41;5053338;28;20405;-72
2023/07/09 02:05:52;;;;;;;26.02;13.90;;;;;;;19.52;100.00;101557.88;5063281;28;20115;-72
2023/07/09 02:08:17;;;;;;;23.77;12.88;;;;;;;19.56;100.00;101553.84;5062010;28;20021;-72
2023/07/09 02:10:44;;;;;;;25.83;13.68;;;;;;;19.58;100.00;101558.25;5056201;28;20545;-73
2023/07/09 02:13:09;;;;;;;25.95;14.02;;;;;;;19.59;100.00;101555.41;5043109;28;20023;-72
2023/07/09 02:15:36;;;;;;;26.65;14.05;;;;;;;19.60;100.00;101559.81;5054240;28;20032;-72
2023/07/09 02:18:01;;;;;;;23.52;11.98;;;;;;;19.61;100.00;101558.81;5042995;28;20039;-72
2023/07/09 02:20:27;;;;;;;24.70;14.32;;;;;;;19.62;100.00;101559.66;5064294;28;20368;-73
2023/07/09 02:22:52;;;;;;;25.20;13.18;;;;;;;19.62;100.00;101556.94;5055568;28;20033;-72
2023/07/09 02:25:18;;;;;;;22.30;12.18;;;;;;;19.61;100.00;101555.25;5051163;28;20455;-72
2023/07/09 02:27:43;;;;;;;24.27;13.57;;;;;;;19.59;100.00;101549.06;5032859;28;20020;-72
2023/07/09 02:30:10;;;;;;;23.73;13.38;;;;;;;19.56;100.00;101553.84;5057631;28;20424;-72
2023/07/09 02:32:36;;;;;;;25.05;13.65;;;;;;;19.55;100.00;101552.09;5043878;28;20039;-75
2023/07/09 02:35:01;;;;;;;24.58;13.82;;;;;;;19.54;100.00;101552.25;5050172;28;20021;-72
2023/07/09 02:37:27;;;;;;;24.10;12.98;;;;;;;19.54;100.00;101546.81;5046209;28;20027;-72
2023/07/09 02:39:53;;;;;;;25.65;13.57;;;;;;;19.49;100.00;101550.00;5064277;28;20032;-73
2023/07/09 02:42:20;;;;;;;23.45;12.38;;;;;;;19.46;100.00;101550.31;5061237;28;20124;-72
2023/07/09 02:44:46;;;;;;;24.30;13.60;;;;;;;19.45;100.00;101554.03;5059162;28;20030;-72
2023/07/09 02:47:13;;;;;;;24.45;13.40;;;;;;;19.41;100.00;101552.63;5068420;28;20039;-72
2023/07/09 02:49:38;;;;;;;25.50;14.00;;;;;;;19.37;100.00;101560.28;5057162;28;20108;-72
2023/07/09 02:52:05;;;;;;;24.80;13.55;;;;;;;19.33;100.00;101549.84;5057734;28;20116;-72
2023/07/09 02:54:30;;;;;;;23.55;13.60;;;;;;;19.31;100.00;101560.00;5048389;28;20028;-72
2023/07/09 02:56:55;;;;;;;22.70;12.70;;;;;;;19.31;100.00;101552.72;5059390;28;20036;-72
2023/07/09 02:59:21;;;;;;;22.90;13.40;;;;;;;19.31;100.00;101557.28;5059872;28;20024;-72
2023/07/09 03:01:47;;;;;;;23.05;12.70;;;;;;;19.31;100.00;101551.84;5068938;28;20074;-72
2023/07/09 03:04:13;;;;;;;24.15;13.82;;;;;;;19.31;100.00;101551.84;5053152;28;20036;-72
2023/07/09 03:06:39;;;;;;;23.52;13.55;;;;;;;19.30;100.00;101555.59;5057326;28;20017;-72
2023/07/09 03:09:04;;;;;;;25.20;13.07;;;;;;;19.28;100.00;101549.41;5062041;28;20028;-72
2023/07/09 03:11:31;;;;;;;24.08;13.13;;;;;;;19.26;100.00;101555.03;5056297;28;20033;-73
2023/07/09 03:13:58;;;;;;;23.17;13.07;;;;;;;19.23;100.00;101552.59;5061149;28;20032;-72
2023/07/09 03:16:25;;;;;;;24.85;12.75;;;;;;;19.21;100.00;101552.75;5066860;28;20480;-73
2023/07/09 03:18:51;;;;;;;24.13;13.18;;;;;;;19.19;100.00;101552.03;5035607;28;20028;-73
2023/07/09 03:21:16;;;;;;;23.23;14.18;;;;;;;19.19;100.00;101557.47;5067843;28;20515;-72
2023/07/09 03:23:41;;;;;;;23.52;13.38;;;;;;;19.17;100.00;101555.94;5054291;28;20056;-72
2023/07/09 03:26:07;;;;;;;23.60;14.02;;;;;;;19.17;100.00;101556.78;5052899;28;20036;-72
2023/07/09 03:28:33;;;;;;;23.65;14.05;;;;;;;19.17;100.00;101550.50;5041763;28;20093;-73
2023/07/09 03:30:58;;;;;;;26.83;15.23;;;;;;;19.16;100.00;101551.50;5054896;28;20028;-72
2023/07/09 03:33:24;;;;;;;25.40;14.13;;;;;;;19.14;100.00;101553.53;5032629;28;20032;-73
2023/07/09 03:35:51;;;;;;;26.05;13.63;;;;;;;19.12;100.00;101552.81;5034094;28;20498;-72
2023/07/09 03:38:17;;;;;;;24.25;14.25;;;;;;;19.08;100.00;101540.47;5040777;28;20017;-72
2023/07/09 03:40:42;;;;;;;25.67;13.85;;;;;;;19.06;100.00;101554.25;5060224;28;20189;-73
2023/07/09 03:43:09;;;;;;;24.35;14.27;;;;;;;19.03;100.00;101549.13;5038914;28;20029;-74
2023/07/09 03:45:36;;;;;;;25.98;13.48;;;;;;;19.04;100.00;101542.66;5054139;28;20040;-72
2023/07/09 03:48:02;;;;;;;24.77;15.32;;;;;;;19.06;100.00;101540.63;5067782;28;20492;-73
2023/07/09 03:50:28;;;;;;;25.33;14.23;;;;;;;19.06;100.00;101545.25;5064180;28;20039;-72
2023/07/09 03:52:53;;;;;;;25.38;14.45;;;;;;;19.04;100.00;101545.41;5045027;28;20013;-72
2023/07/09 03:55:19;;;;;;;25.75;14.45;;;;;;;19.03;100.00;101544.53;5055291;28;20396;-72
2023/07/09 03:57:44;;;;;;;24.83;14.57;;;;;;;19.03;100.00;101543.66;5057834;28;20032;-72
2023/07/09 04:00:12;;;;;;;25.88;14.57;;;;;;;19.01;100.00;101552.00;5064279;28;20455;-72
2023/07/09 04:02:39;;;;;;;26.42;15.35;;;;;;;19.01;100.00;101545.69;5058557;28;20049;-72
2023/07/09 04:05:05;;;;;;;23.30;14.48;;;;;;;19.02;100.00;101541.97;5066643;28;20045;-72
2023/07/09 04:07:30;;;;;;;23.63;14.57;;;;;;;19.02;100.00;101544.69;5062450;28;20025;-72
2023/07/09 04:09:55;;;;;;;23.20;13.00;;;;;;;19.03;100.00;101544.53;5048649;28;20131;-72
2023/07/09 04:12:21;;;;;;;26.00;14.27;;;;;;;19.03;100.00;101538.22;5065678;28;20025;-72
2023/07/09 04:14:46;;;;;;;24.15;14.07;;;;;;;19.04;100.00;101540.78;5064553;28;20055;-72
2023/07/09 04:17:12;;;;;;;27.63;15.60;;;;;;;19.07;100.00;101542.38;5051473;28;20039;-72
2023/07/09 04:19:37;;;;;;;23.95;14.23;;;;;;;19.11;100.00;101549.22;5043924;28;20082;-71
2023/07/09 04:22:03;;;;;;;25.42;14.15;;;;;;;19.11;100.00;101546.50;5059133;28;20052;-72
2023/07/09 04:24:29;;;;;;;27.55;14.85;;;;;;;19.13;100.00;101557.25;5059470;28;20123;-72
2023/07/09 04:26:56;;;;;;;26.83;14.43;;;;;;;19.15;100.00;101549.75;5051176;28;20032;-73
2023/07/09 04:29:22;;;;;;;26.63;16.45;;;;;;;19.18;100.00;101558.50;5056354;28;20016;-72
2023/07/09 04:31:47;;;;;;;24.65;15.77;;;;;;;19.18;100.00;101542.16;5065245;28;20063;-72
2023/07/09 04:34:13;;;;;;;25.02;15.40;;;;;;;19.22;100.00;101550.88;5047267;28;20052;-72
2023/07/09 04:36:38;;;;;;;24.70;14.40;;;;;;;19.25;100.00;101550.56;5057418;28;20531;-72
2023/07/09 04:39:04;;;;;;;30.27;16.80;;;;;;;19.30;100.00;101545.53;5066305;28;20116;-73
2023/07/09 04:41:29;;;;;;;26.58;15.98;;;;;;;19.35;100.00;101547.78;5063001;28;20059;-72
2023/07/09 04:43:54;;;;;;;28.35;17.00;;;;;;;19.40;100.00;101550.94;5058963;28;20060;-72
2023/07/09 04:46:20;;;;;;;25.73;16.15;;;;;;;19.45;100.00;101551.31;5061354;28;20154;-73
2023/07/09 04:48:45;;;;;;;25.00;15.95;;;;;;;19.49;100.00;101540.97;5064834;28;20130;-72
2023/07/09 04:51:11;;;;;;;29.50;15.93;;;;;;;19.54;100.00;101544.09;5054744;28;20054;-72
2023/07/09 04:53:36;;;;;;;28.60;17.27;;;;;;;19.59;100.00;101543.59;5050958;28;20048;-72
2023/07/09 04:56:02;;;;;;;25.90;16.23;;;;;;;19.63;100.00;101545.03;5060234;28;20024;-72
2023/07/09 04:58:28;;;;;;;25.35;16.02;;;;;;;19.67;100.00;101546.44;5063545;28;20114;-73
2023/07/09 05:00:57;;;;;;;27.73;15.50;;;;;;;19.72;100.00;101549.53;5059600;28;20404;-73
2023/07/09 05:03:22;;;;;;;23.73;12.77;;;;;;;19.75;100.00;101546.50;5047692;28;20083;-72
2023/07/09 05:05:48;;;;;;;24.30;15.30;;;;;;;19.81;100.00;101548.66;5034856;28;20364;-73
2023/07/09 05:08:13;;;;;;;25.88;14.20;;;;;;;19.84;100.00;101548.34;5041037;28;20049;-72
2023/07/09 05:10:46;;;;;;;23.00;10.75;;;;;;;19.80;100.00;101548.81;5034669;28;20029;-72
2023/07/09 05:13:12;;;;;;;22.88;11.65;;;;;;;19.81;100.00;101551.38;5052391;28;20025;-72
2023/07/09 05:15:43;;;;;;;21.92;11.57;;;;;;;19.82;100.00;101550.34;5060140;28;20753;-73
2023/07/09 05:18:08;;;;;;;20.20;10.45;;;;;;;19.82;95.03;101554.97;5050057;28;20044;-72
2023/07/09 05:20:34;;;;;;;20.65;10.35;;;;;;;19.84;93.87;101558.38;5049858;28;20033;-72
2023/07/09 05:23:00;;;;;;;20.10;10.63;;;;;;;19.83;91.55;101562.13;5050548;28;20029;-72
2023/07/09 05:25:25;;;;;;;22.60;10.88;;;;;;;19.83;86.07;101557.53;5049855;28;20116;-72
2023/07/09 05:27:51;;;;;;;21.08;10.82;;;;;;;19.92;97.62;101555.72;5033030;28;20175;-73
2023/07/09 05:30:17;;;;;;;22.77;11.93;;;;;;;19.95;94.23;101551.84;5034267;28;20127;-72
2023/07/09 05:32:42;;;;;;;22.65;10.25;;;;;;;19.94;85.72;101552.84;5033134;28;20091;-72
2023/07/09 05:35:08;;;;;;;21.23;10.38;;;;;;;19.97;86.79;101552.53;5047919;28;20481;-73
2023/07/09 05:37:33;;;;;;;21.90;10.02;;;;;;;19.99;83.56;101550.50;5032795;28;20036;-72
2023/07/09 05:39:58;;;;;;;22.02;10.45;;;;;;;20.06;89.76;101551.59;5060406;28;20040;-72
2023/07/09 05:42:24;;;;;;;21.85;10.02;;;;;;;20.05;83.16;101555.34;5052736;28;20065;-72
2023/07/09 05:44:49;;;;;;;21.40;10.00;;;;;;;20.11;84.29;101548.41;5057242;28;20396;-72
2023/07/09 05:47:14;;;;;;;21.63;10.00;;;;;;;20.18;86.48;101549.47;5062834;28;20032;-72
2023/07/09 05:49:40;;;;;;;22.60;10.63;;;;;;;20.22;84.41;101549.00;5039646;28;20024;-72
2023/07/09 05:52:05;;;;;;;20.67;10.82;;;;;;;20.31;91.83;101549.03;5061028;28;20037;-72
2023/07/09 05:54:31;;;;;;;27.90;11.90;;;;;;;20.41;96.38;101541.59;5059516;28;20440;-72
2023/07/09 05:56:57;;;;;;;24.23;12.35;;;;;;;20.53;93.45;101547.69;5061085;28;20116;-72
2023/07/09 05:59:22;;;;;;;24.33;11.43;;;;;;;20.58;91.83;101548.03;5065215;28;20032;-72
2023/07/09 06:01:47;;;;;;;22.17;10.13;;;;;;;20.57;86.35;101555.38;5037578;28;20111;-73
2023/07/09 06:04:13;;;;;;;21.75;9.77;;;;;;;20.61;86.35;101561.38;5057701;28;20031;-72
2023/07/09 06:06:41;;;;;;;20.58;9.75;;;;;;;20.64;84.49;101560.19;5040513;28;20025;-72
2023/07/09 06:09:08;;;;;;;20.63;9.98;;;;;;;20.69;83.10;101563.31;5054541;28;20025;-73
2023/07/09 06:11:33;;;;;;;21.98;9.52;;;;;;;20.73;83.90;101565.59;5052909;28;20084;-72
2023/07/09 06:13:59;;;;;;;21.08;9.75;;;;;;;20.80;85.65;101562.19;5057471;28;20537;-72
2023/07/09 06:16:24;;;;;;;22.80;10.63;;;;;;;20.91;88.49;101561.91;5062856;28;20031;-72
2023/07/09 06:18:49;;;;;;;21.15;10.02;;;;;;;20.92;84.85;101566.34;5054416;28;20047;-72
2023/07/09 06:21:15;;;;;;;22.25;10.65;;;;;;;20.99;84.54;101564.66;5055304;28;20123;-73
2023/07/09 06:23:40;;;;;;;20.75;9.80;;;;;;;21.05;83.93;101574.94;5036802;28;20031;-72
2023/07/09 06:26:05;;;;;;;19.73;8.52;;;;;;;21.09;83.56;101564.56;5044213;28;20037;-73
2023/07/09 06:28:31;;;;;;;21.15;10.82;;;;;;;21.27;95.21;101562.59;5060309;28;20047;-72
2023/07/09 06:30:56;;;;;;;20.35;9.80;;;;;;;21.24;84.39;101567.50;5056509;28;20024;-72
2023/07/09 06:33:23;;;;;;;20.88;9.68;;;;;;;21.29;87.08;101559.69;5058078;28;20036;-73
2023/07/09 06:35:52;;;;;;;22.10;10.07;;;;;;;21.34;85.01;101561.91;5046634;28;20043;-73
2023/07/09 06:38:18;;;;;;;21.85;10.95;;;;;;;21.48;90.83;101558.53;5053979;28;20040;-72
2023/07/09 06:40:44;;;;;;;20.65;9.82;;;;;;;21.44;84.14;101568.94;5064213;28;20488;-72
2023/07/09 06:43:09;;;;;;;19.60;9.00;;;;;;;21.47;84.02;101560.41;5060955;28;20130;-72
2023/07/09 06:45:35;;;;;;;23.13;10.10;;;;;;;21.54;83.60;101560.63;5052886;28;20020;-72
2023/07/09 06:48:01;;;;;;;20.20;9.48;;;;;;;21.58;82.95;101564.75;5052293;28;20029;-71
2023/07/09 06:50:26;;;;;;;20.30;9.90;;;;;;;21.63;82.24;101567.81;5062760;28;20484;-72
2023/07/09 06:52:52;;;;;;;22.88;10.18;;;;;;;21.73;82.10;101564.06;5048785;28;20373;-72
2023/07/09 06:55:17;;;;;;;19.73;8.68;;;;;;;21.79;80.54;101577.09;5059815;28;20054;-73
2023/07/09 06:57:43;;;;;;;22.35;10.10;;;;;;;21.88;86.78;101576.06;5067944;28;20043;-71
2023/07/09 07:00:08;;;;;;;19.65;8.73;;;;;;;21.87;80.31;101571.63;5078389;28;20076;-72
2023/07/09 07:02:34;;;;;;;21.13;9.90;;;;;;;21.91;80.18;101581.19;5079233;28;20041;-75
2023/07/09 07:04:59;;;;;;;20.45;9.35;;;;;;;21.94;80.81;101575.38;5077120;28;20092;-72
2023/07/09 07:07:24;;;;;;;18.75;9.05;;;;;;;21.98;81.36;101581.41;5043675;28;20049;-73
2023/07/09 07:09:50;;;;;;;21.65;10.25;;;;;;;22.03;83.62;101579.00;5077315;28;20094;-75
2023/07/09 07:12:27;;;;;;;22.58;10.20;;;;;;;22.11;83.25;101583.59;5056442;28;20493;-73
2023/07/09 07:14:53;;;;;;;20.63;8.93;;;;;;;22.16;84.50;101578.47;5060857;28;20087;-73
2023/07/09 07:17:18;;;;;;;25.83;11.05;;;;;;;22.26;83.81;101587.38;5053216;28;20021;-73
2023/07/09 07:19:43;;;;;;;24.35;10.20;;;;;;;22.30;85.15;101594.22;5041394;28;20127;-72
2023/07/09 07:22:09;;;;;;;21.25;9.35;;;;;;;22.39;82.99;101596.97;5050868;28;20111;-73
2023/07/09 07:24:34;;;;;;;19.50;9.30;;;;;;;22.44;83.09;101586.38;5056495;28;20031;-75
2023/07/09 07:26:59;;;;;;;20.85;8.60;;;;;;;22.48;83.93;101588.59;5074170;28;20047;-74
2023/07/09 07:29:25;;;;;;;20.33;9.30;;;;;;;22.59;85.30;101590.13;5050723;28;20033;-73
2023/07/09 07:31:50;;;;;;;20.45;9.15;;;;;;;22.57;82.77;101586.69;5067972;28;20020;-73
2023/07/09 07:34:15;;;;;;;19.65;8.63;;;;;;;22.61;83.24;101589.97;5069456;28;20036;-74
2023/07/09 07:36:41;;;;;;;22.55;10.10;;;;;;;22.74;83.57;101587.53;5069072;28;20033;-71
2023/07/09 07:39:06;;;;;;;18.45;7.95;;;;;;;22.79;82.75;101587.84;5064422;28;20033;-73
2023/07/09 07:41:31;;;;;;;36.97;15.13;;;;;;;22.88;83.41;101583.19;5067769;28;20031;-76
2023/07/09 07:43:57;;;;;;;20.63;8.38;;;;;;;22.88;80.95;101579.59;5063371;28;20044;-76
2023/07/09 07:46:22;;;;;;;21.48;10.00;;;;;;;22.94;84.65;101585.22;5083985;28;20041;-74
2023/07/09 07:48:47;;;;;;;18.73;9.50;;;;;;;23.07;85.63;101581.94;5080397;28;20090;-75
2023/07/09 07:51:13;;;;;;;21.92;10.60;;;;;;;23.23;82.21;101577.44;5066001;28;20493;-75
2023/07/09 07:53:38;;;;;;;21.35;8.35;;;;;;;23.13;80.62;101580.41;5047839;28;20025;-75
2023/07/09 07:56:04;;;;;;;20.30;9.95;;;;;;;23.20;80.68;101576.75;5048050;28;20025;-74
2023/07/09 07:58:31;;;;;;;21.25;9.65;;;;;;;23.34;81.20;101571.53;5070313;28;20013;-74
2023/07/09 08:00:57;;;;;;;19.98;10.40;;;;;;;23.52;78.98;101585.00;5076557;28;20020;-74
2023/07/09 08:03:23;;;;;;;21.45;9.40;;;;;;;23.49;79.63;101580.75;5038222;28;20041;-75
2023/07/09 08:05:52;;;;;;;19.65;8.73;;;;;;;23.49;79.36;101574.41;5044230;28;20055;-75
2023/07/09 08:08:18;;;;;;;24.00;10.30;;;;;;;23.58;80.51;101573.31;5056737;28;20028;-74
2023/07/09 08:10:43;;;;;;;19.98;8.32;;;;;;;23.42;77.47;101574.25;5064000;28;20169;-74
2023/07/09 08:13:09;;;;;;;19.73;9.32;;;;;;;23.48;79.44;101568.03;5061633;28;20045;-75
2023/07/09 08:15:34;;;;;;;20.63;10.23;;;;;;;23.62;80.28;101571.91;5059522;28;20028;-76
2023/07/09 08:18:00;;;;;;;21.70;10.02;;;;;;;23.66;78.72;101569.66;5063444;28;20057;-76
2023/07/09 08:20:25;;;;;;;21.67;10.25;;;;;;;23.69;78.55;101569.28;5064378;28;20031;-76
2023/07/09 08:22:50;;;;;;;19.88;10.13;;;;;;;23.88;79.11;101574.34;5048366;28;20029;-74
2023/07/09 08:25:16;;;;;;;19.65;10.23;;;;;;;23.93;80.22;101575.69;5068341;28;20033;-76
2023/07/09 08:27:41;;;;;;;21.90;11.07;;;;;;;23.99;77.41;101572.22;5048403;28;20029;-76
2023/07/09 08:30:07;;;;;;;20.45;11.02;;;;;;;24.02;79.73;101580.91;5048134;28;20025;-76
2023/07/09 08:32:33;;;;;;;20.33;10.40;;;;;;;24.07;76.97;101573.00;5060630;28;20074;-76
2023/07/09 08:34:58;;;;;;;18.95;8.07;;;;;;;23.98;75.60;101565.00;5053464;28;20020;-76
2023/07/09 08:37:23;;;;;;;20.38;10.25;;;;;;;24.03;76.74;101566.16;5042045;28;20027;-75
2023/07/09 08:39:48;;;;;;;18.15;9.00;;;;;;;24.00;75.08;101561.03;5064375;28;20036;-75
2023/07/09 08:42:29;;;;;;;18.65;8.70;;;;;;;24.00;75.15;101563.78;5050379;28;20512;-76
2023/07/09 08:45:21;;;;;;;23.80;10.65;;;;;;;24.01;77.51;101560.00;5049427;28;20029;-76
2023/07/09 08:47:52;;;;;;;20.77;10.60;;;;;;;24.10;77.30;101569.03;5045022;28;20036;-76
2023/07/09 08:50:29;;;;;;;21.38;10.35;;;;;;;24.24;78.67;101567.34;5034688;28;20507;-76
2023/07/09 08:52:57;;;;;;;21.00;10.23;;;;;;;24.15;77.78;101573.97;5053500;28;20391;-75
2023/07/09 08:55:28;;;;;;;20.75;9.93;;;;;;;24.17;75.28;101577.38;5058193;28;20027;-76
2023/07/09 08:58:09;;;;;;;20.75;11.15;;;;;;;24.25;78.64;101569.06;5066193;28;20025;-76
2023/07/09 09:00:43;;;;;;;20.52;10.40;;;;;;;24.22;78.12;101562.06;5061064;28;20037;-76
2023/07/09 09:03:38;;;;;;;19.05;8.82;;;;;;;24.17;76.11;101560.91;5056884;28;20077;-76
2023/07/09 09:06:10;;;;;;;21.58;9.93;;;;;;;24.24;76.60;101564.59;5046763;28;20054;-76
2023/07/09 09:08:40;;;;;;;20.70;10.93;;;;;;;24.32;76.85;101556.31;5065193;28;20029;-76
2023/07/09 09:11:33;;;;;;;19.05;8.93;;;;;;;24.30;76.84;101552.88;5068373;28;20021;-76
2023/07/09 09:14:04;;;;;;;20.15;9.35;;;;;;;24.29;75.78;101553.06;5069236;28;20039;-76
2023/07/09 09:16:38;;;;;;;21.20;9.43;;;;;;;24.32;76.36;101549.94;5061894;28;20025;-76
2023/07/09 09:19:22;;;;;;;24.52;11.02;;;;;;;24.62;74.53;101558.28;5066357;28;20077;-76
2023/07/09 09:21:52;;;;;;;19.20;8.50;;;;;;;24.57;75.17;101556.91;5047997;28;20366;-76
2023/07/09 09:24:26;;;;;;;19.77;10.68;;;;;;;24.65;74.96;101558.72;5053331;28;20060;-76
2023/07/09 09:26:56;;;;;;;18.25;7.93;;;;;;;24.62;74.43;101550.88;5045768;28;20064;-75
2023/07/09 09:29:24;;;;;;;21.58;9.90;;;;;;;24.73;73.58;101542.16;5066954;28;20024;-74
2023/07/09 09:31:54;;;;;;;21.00;9.15;;;;;;;24.81;75.51;101534.88;5055406;28;20435;-76
2023/07/09 09:34:23;;;;;;;18.17;8.43;;;;;;;24.84;77.91;101532.56;5049013;28;20064;-76
2023/07/09 09:36:48;;;;;;;18.98;9.02;;;;;;;24.87;72.97;101534.09;5065574;28;20060;-75
2023/07/09 09:39:13;;;;;;;19.63;8.77;;;;;;;24.89;71.55;101532.00;5066149;28;20029;-75
2023/07/09 09:41:40;;;;;;;20.65;9.52;;;;;;;24.98;72.49;101530.88;5055963;28;20032;-76
2023/07/09 09:44:06;;;;;;;17.60;8.35;;;;;;;24.98;73.38;101517.13;5060615;28;20039;-75
2023/07/09 09:46:32;;;;;;;18.15;8.48;;;;;;;24.88;72.59;101524.81;5054244;28;20498;-75
2023/07/09 09:49:03;;;;;;;18.88;8.77;;;;;;;24.91;72.08;101513.44;5056059;28;20037;-75
2023/07/09 09:51:29;;;;;;;18.70;8.50;;;;;;;25.11;73.66;101521.91;5050633;28;20053;-76
2023/07/09 09:53:59;;;;;;;19.13;8.57;;;;;;;25.02;72.01;101514.81;5053137;28;20041;-74
2023/07/09 09:56:33;;;;;;;21.20;9.25;;;;;;;25.14;70.89;101505.06;5041330;28;20033;-76
2023/07/09 09:58:59;;;;;;;19.35;8.75;;;;;;;25.00;71.37;101501.28;5048916;28;20119;-73
2023/07/09 10:01:38;;;;;;;19.27;8.70;;;;;;;25.13;69.24;101504.19;5048634;28;20051;-72
2023/07/09 10:04:05;;;;;;;21.10;8.93;;;;;;;25.10;67.14;101512.81;5024128;28;20382;-71
2023/07/09 10:06:37;;;;;;;20.23;8.95;;;;;;;25.05;67.69;101523.56;5028066;28;20033;-72
2023/07/09 10:09:14;;;;;;;18.95;9.10;;;;;;;24.98;68.01;101525.38;5029817;28;20031;-74
2023/07/09 10:12:07;;;;;;;19.67;8.63;;;;;;;24.95;69.25;101518.34;5037410;28;20044;-81
2023/07/09 10:14:56;;;;;;;21.08;8.85;;;;;;;24.94;69.87;101516.63;5028172;28;20569;-72
2023/07/09 10:17:38;;;;;;;17.90;7.85;;;;;;;25.02;72.31;101521.16;5026399;28;20025;-77
2023/07/09 10:20:22;;;;;;;21.73;7.88;;;;;;;25.02;72.76;101528.56;5034327;28;20025;-75
2023/07/09 10:23:15;;;;;;;22.27;7.55;;;;;;;25.15;71.93;101539.75;5036179;28;20034;-76
2023/07/09 10:25:54;;;;;;;20.20;8.98;;;;;;;25.20;73.33;101537.28;5032370;28;20030;-74
2023/07/09 10:28:39;;;;;;;20.27;8.63;;;;;;;25.15;71.81;101536.16;5026691;28;20034;-72
2023/07/09 10:31:24;;;;;;;18.92;7.85;;;;;;;25.21;71.95;101546.38;5004105;28;20037;-77
2023/07/09 10:34:14;;;;;;;20.13;8.52;;;;;;;25.25;73.73;101544.94;5037066;28;20045;-76
2023/07/09 10:37:15;;;;;;;17.25;6.93;;;;;;;25.23;72.69;101539.63;5045037;28;20094;-77
2023/07/09 10:39:50;;;;;;;16.50;6.70;;;;;;;25.17;72.47;101542.28;5036799;28;20026;-76
2023/07/09 10:42:30;;;;;;;17.95;7.68;;;;;;;25.41;76.28;101546.66;5045422;28;20052;-76
2023/07/09 10:45:09;;;;;;;17.30;7.75;;;;;;;25.63;72.22;101550.28;5072734;23;20400;-72
2023/07/09 10:47:39;;;;;;;17.92;7.80;;;;;;;25.71;70.88;101541.91;5070253;28;20047;-73
2023/07/09 10:50:13;;;;;;;18.48;7.78;;;;;;;25.70;68.85;101537.44;5067063;28;20044;-71
2023/07/09 10:52:43;;;;;;;19.48;8.25;;;;;;;25.87;71.75;101534.41;5071977;28;20039;-71
2023/07/09 10:55:21;;;;;;;19.00;7.72;;;;;;;25.72;69.59;101527.06;5066619;28;20687;-69
2023/07/09 10:58:25;;;;;;;17.67;8.55;;;;;;;26.05;69.65;101525.69;5050275;28;20060;-72
2023/07/09 11:00:50;;;;;;;20.35;8.10;;;;;;;26.01;68.90;101532.69;5003599;28;20030;-74
2023/07/09 11:03:20;;;;;;;17.70;8.65;;;;;;;26.13;69.04;101523.66;4987635;28;20065;-74
2023/07/09 11:05:48;;;;;;;19.10;8.65;;;;;;;26.10;72.07;101529.56;4987974;28;20062;-73
2023/07/09 11:08:18;;;;;;;18.55;7.65;;;;;;;26.26;69.32;101527.59;4975178;28;20026;-74
2023/07/09 11:10:54;;;;;;;17.23;7.25;;;;;;;26.19;68.52;101530.28;4974192;28;20073;-72
2023/07/09 11:13:24;;;;;;;17.05;7.00;;;;;;;26.16;68.37;101534.28;4979792;28;20619;-73
2023/07/09 11:15:53;;;;;;;19.60;7.82;;;;;;;26.08;69.30;101539.09;4982841;28;20035;-74